Historical Weather Data

Kanab, UT VWS

Date ET
(Inches)
Rain
(Inches)
Temp °F
Humidity
Avg
Wind MPH
Avg
Solar Wm2
Avg
High Ave Low
07/01/2018 12:00 am 0.292 0.00 93.0 79.3 60.0 17 3.3 389
07/02/2018 12:00 am 0.315 0.00 96.0 80.2 59.0 14 4.0 385
07/03/2018 12:00 am 0.326 0.00 94.0 79.8 62.0 12 4.7 391
07/04/2018 12:00 am 0.274 0.00 93.0 77.9 62.0 16 2.7 383
07/05/2018 12:00 am 0.274 0.00 98.0 81.6 62.0 17 2.6 373
07/06/2018 12:00 am 0.268 0.00 99.0 84.6 67.5 25 2.7 351
07/07/2018 12:00 am 0.258 0.00 98.0 82.4 65.0 31 2.7 334
07/08/2018 12:00 am 0.256 0.00 97.0 84.3 69.0 30 2.6 319
07/09/2018 12:00 am 0.251 0.01 95.0 82.0 69.0 34 3.0 320
07/10/2018 12:00 am 0.239 0.00 92.0 78.2 63.0 44 2.9 312
07/11/2018 12:00 am 0.205 0.00 93.0 78.5 67.5 47 2.6 268
07/12/2018 12:00 am 0.174 0.16 88.0 76.4 67.0 53 2.4 221
07/13/2018 12:00 am 0.162 0.04 88.0 75.3 62.0 54 2.2 205
07/14/2018 12:00 am 0.159 0.06 88.0 77.1 68.0 51 1.7 206
07/15/2018 12:00 am 0.195 0.07 89.0 76.4 67.0 55 1.7 275
07/16/2018 12:00 am 0.215 0.00 92.0 78.1 67.0 48 1.8 309
07/17/2018 12:00 am 0.219 0.00 92.0 79.2 68.0 46 2.3 297
07/18/2018 12:00 am 0.227 0.00 95.0 80.6 67.0 47 3.2 278
07/19/2018 12:00 am 0.212 0.00 92.0 78.2 67.0 48 2.8 269
07/20/2018 12:00 am 0.201 0.06 92.0 78.6 65.0 47 2.3 264
07/21/2018 12:00 am 0.225 0.00 92.0 77.5 68.0 45 2.6 293
07/22/2018 12:00 am 0.245 0.00 92.0 78.8 63.0 44 2.2 343
07/23/2018 12:00 am 0.253 0.00 97.0 82.4 66.0 38 2.2 342
07/24/2018 12:00 am 0.259 0.00 98.0 83.8 71.0 33 2.7 337
07/25/2018 12:00 am 0.285 0.00 99.0 84.4 68.0 30 3.3 345
07/26/2018 12:00 am 0.264 0.00 97.3 83.9 70.0 30 2.5 343
07/27/2018 12:00 am 0.263 0.00 98.0 83.3 68.0 27 2.5 348
07/28/2018 12:00 am 0.271 0.00 97.0 82.5 69.0 30 3.2 345
07/29/2018 12:00 am 0.249 0.00 98.0 82.3 69.0 36 2.9 320
07/30/2018 12:00 am 0.238 0.00 100.0 81.4 66.0 35 2.2 326
07/31/2018 12:00 am 0.230 0.00 98.0 81.4 66.0 34 2.0 320